»·PEaware :: SWA4214 KPDX-KLAS

SWA4214 :: KPDX-KLAS

FLIGHT INFORMATION

Flight Status: Arrived
Operator:
Southwest Airlines
More flights by this operator :: More flights under this callsign
Pilot: Anonymous 12254 (12254)
Aircraft: BOEING 737-800
(B738)
More flights by this aircraft type
Origin: KPDX Portland Intl
United States
Destination: KLAS McCarran Intl
United States
More flights between these airports :: More routes between these airports
Route: CASCD2 PAWLI YERIN LIDAT BTY SUNST4
File this flight plan on PilotEdge
Remarks:
Altitude:
(Current/Filed)
31,000ft
Speed:
(Current/Filed)
450kts
Departed: 24-Apr-20 02:17 PM
Arrived: 24-Apr-20 03:59 PM
Distance/Time
Traveled:
663nm/1:42
Distance/Time
To Go:
Arrived

Flight Plot

Page will automatically refresh every two minutes.

Flight plan parsing failed; only flown route is shown


Map Options




Map Legend


Flown Route
Filed Route
Departure Airport
Arrival Airport
Navaid (VOR, NDB)
Fix

Horizontal Profiles

Position Reports

Time Latitude Longitude Heading Altitude Ground
Speed
24-Apr-20 13:32 45.589049 -122.597901 18 25ft 0kts
24-Apr-20 13:33 45.589049 -122.597901 18 25ft 0kts
24-Apr-20 13:41 45.589049 -122.597901 18 25ft 0kts
24-Apr-20 13:42 45.589049 -122.597901 18 25ft 0kts
24-Apr-20 13:43 45.589049 -122.597901 18 25ft 0kts
24-Apr-20 13:44 45.589049 -122.597901 18 25ft 0kts
24-Apr-20 13:45 45.589049 -122.597901 18 25ft 0kts
24-Apr-20 13:46 45.589049 -122.597901 18 25ft 0kts
24-Apr-20 13:47 45.589049 -122.597901 18 25ft 0kts
24-Apr-20 13:48 45.589049 -122.597901 18 25ft 0kts
24-Apr-20 13:49 45.588528 -122.598093 344 25ft 1kts
24-Apr-20 13:50 45.588501 -122.598077 299 25ft 0kts
24-Apr-20 13:51 45.588501 -122.598077 299 25ft 0kts
24-Apr-20 13:52 45.588501 -122.598077 299 25ft 0kts
24-Apr-20 13:53 45.588501 -122.598077 299 25ft 0kts
24-Apr-20 13:54 45.588501 -122.598077 299 25ft 0kts
24-Apr-20 13:55 45.588501 -122.598077 299 25ft 0kts
24-Apr-20 13:56 45.588506 -122.598085 305 25ft 0kts
24-Apr-20 13:57 45.588506 -122.598085 305 25ft 0kts
24-Apr-20 13:58 45.588506 -122.598085 305 25ft 0kts
24-Apr-20 13:59 45.588506 -122.598085 305 25ft 0kts
24-Apr-20 14:00 45.588506 -122.598085 305 25ft 0kts
24-Apr-20 14:01 45.588506 -122.598085 305 25ft 0kts
24-Apr-20 14:03 45.588506 -122.598085 305 25ft 0kts
24-Apr-20 14:04 45.588506 -122.598085 305 25ft 0kts
24-Apr-20 14:05 45.588506 -122.598085 305 25ft 0kts
24-Apr-20 14:06 45.588506 -122.598085 305 25ft 0kts
24-Apr-20 14:07 45.588506 -122.598085 305 25ft 0kts
24-Apr-20 14:08 45.588506 -122.598085 305 25ft 0kts
24-Apr-20 14:09 45.588506 -122.598085 305 25ft 0kts
24-Apr-20 14:10 45.588506 -122.598085 305 25ft 0kts
24-Apr-20 14:11 45.588777 -122.599650 286 23ft 11kts
24-Apr-20 14:12 45.590819 -122.602691 41 25ft 12kts
24-Apr-20 14:13 45.593491 -122.598876 42 28ft 13kts
24-Apr-20 14:14 45.594296 -122.597773 44 28ft 0kts
24-Apr-20 14:15 45.594296 -122.597773 44 28ft 0kts
24-Apr-20 14:16 45.594296 -122.597773 44 28ft 0kts
24-Apr-20 14:17 45.591924 -122.588228 118 25ft 125kts
24-Apr-20 14:17 45.573164 -122.530379 94 1708ft 240kts
24-Apr-20 14:19 45.557538 -122.415794 101 4092ft 261kts
24-Apr-20 14:20 45.530930 -122.316336 133 5208ft 283kts
24-Apr-20 14:20 45.475162 -122.269519 161 6148ft 292kts
24-Apr-20 14:21 45.397029 -122.250105 168 7809ft 293kts
24-Apr-20 14:23 45.305311 -122.222950 173 12547ft 290kts
24-Apr-20 14:23 45.236920 -122.203089 174 14817ft 314kts
24-Apr-20 14:24 45.150567 -122.178011 175 16406ft 322kts
24-Apr-20 14:25 45.061630 -122.150211 164 17896ft 339kts
24-Apr-20 14:27 44.958984 -122.083217 161 20511ft 362kts
24-Apr-20 14:27 44.882533 -122.032019 161 22007ft 371kts
24-Apr-20 14:28 44.787729 -121.968818 162 23809ft 384kts
24-Apr-20 14:29 44.689229 -121.903400 162 25627ft 400kts
24-Apr-20 14:30 44.589586 -121.837355 163 28142ft 391kts
24-Apr-20 14:31 44.490959 -121.772414 163 29984ft 397kts
24-Apr-20 14:32 44.388457 -121.705188 163 30967ft 425kts
24-Apr-20 14:33 44.276944 -121.632163 162 30968ft 444kts
24-Apr-20 14:34 44.165429 -121.559519 162 30972ft 442kts
24-Apr-20 14:35 44.053891 -121.487166 162 30972ft 443kts
24-Apr-20 14:36 43.940870 -121.414245 162 30994ft 468kts
24-Apr-20 14:37 43.815948 -121.333895 162 30972ft 518kts
24-Apr-20 14:38 43.685943 -121.250617 162 30958ft 514kts
24-Apr-20 14:39 43.555617 -121.167615 162 30960ft 516kts
24-Apr-20 14:40 43.425266 -121.084981 162 30962ft 518kts
24-Apr-20 14:41 43.293288 -121.001701 162 30964ft 521kts
24-Apr-20 14:42 43.161229 -120.921388 166 30978ft 518kts
24-Apr-20 14:43 43.025396 -120.853123 167 31029ft 518kts
24-Apr-20 14:44 42.889305 -120.785284 167 31032ft 524kts
24-Apr-20 14:45 42.752574 -120.717481 167 31031ft 523kts
24-Apr-20 14:46 42.615612 -120.649865 167 31030ft 523kts
24-Apr-20 14:47 42.478397 -120.582445 167 31032ft 525kts
24-Apr-20 14:48 42.341164 -120.515337 167 31036ft 525kts
24-Apr-20 14:49 42.204218 -120.448648 167 31036ft 524kts
24-Apr-20 14:50 42.067234 -120.382313 167 31040ft 525kts
24-Apr-20 14:51 41.929991 -120.316099 168 31025ft 522kts
24-Apr-20 14:52 41.792482 -120.250073 168 31008ft 524kts
24-Apr-20 14:53 41.655404 -120.184546 168 31006ft 523kts
24-Apr-20 14:54 41.518011 -120.119200 168 31008ft 524kts
24-Apr-20 14:55 41.381353 -120.054477 168 31010ft 523kts
24-Apr-20 14:56 41.243662 -119.989535 168 31009ft 524kts
24-Apr-20 14:57 41.107083 -119.925423 168 31012ft 523kts
24-Apr-20 14:58 40.970980 -119.861880 167 31554ft 519kts
24-Apr-20 14:59 40.836650 -119.799289 167 30988ft 504kts
24-Apr-20 15:00 40.703426 -119.737570 167 31053ft 510kts
24-Apr-20 15:01 40.570144 -119.676082 167 30994ft 509kts
24-Apr-20 15:02 40.436949 -119.614877 167 31004ft 509kts
24-Apr-20 15:03 40.303356 -119.553758 167 31014ft 508kts
24-Apr-20 15:04 40.169796 -119.492911 167 31013ft 509kts
24-Apr-20 15:05 40.036686 -119.432528 167 31013ft 509kts
24-Apr-20 15:06 39.902904 -119.372069 167 31012ft 509kts
24-Apr-20 15:07 39.769532 -119.312063 167 30980ft 508kts
24-Apr-20 15:08 39.636060 -119.252259 168 30975ft 507kts
24-Apr-20 15:09 39.502441 -119.192638 167 30976ft 508kts
24-Apr-20 15:10 39.369308 -119.133448 168 30971ft 508kts
24-Apr-20 15:11 39.235769 -119.074345 168 30972ft 508kts
24-Apr-20 15:12 39.102070 -119.015404 167 30974ft 509kts
24-Apr-20 15:13 38.968153 -118.953668 155 30971ft 523kts
24-Apr-20 15:14 38.859143 -118.827219 141 30971ft 530kts
24-Apr-20 15:15 38.747795 -118.703375 141 30973ft 531kts
24-Apr-20 15:16 38.636008 -118.579692 141 30976ft 531kts
24-Apr-20 15:17 38.524527 -118.456865 141 30990ft 531kts
24-Apr-20 15:18 38.413436 -118.334976 142 31048ft 532kts
24-Apr-20 15:19 38.301357 -118.212542 142 31010ft 532kts
24-Apr-20 15:20 38.188876 -118.090192 142 30895ft 532kts
24-Apr-20 15:21 38.076578 -117.968538 142 30921ft 531kts
24-Apr-20 15:22 37.964312 -117.847442 142 30916ft 531kts
24-Apr-20 15:23 37.851552 -117.726296 142 30919ft 531kts
24-Apr-20 15:24 37.738983 -117.605870 142 30981ft 531kts
24-Apr-20 15:25 37.626189 -117.485712 142 30995ft 531kts
24-Apr-20 15:26 37.513365 -117.366007 142 30992ft 531kts
24-Apr-20 15:27 37.397918 -117.250699 149 30989ft 528kts
24-Apr-20 15:28 37.276525 -117.147594 149 31019ft 527kts
24-Apr-20 15:29 37.155213 -117.045329 149 32221ft 531kts
24-Apr-20 15:30 37.034080 -116.938149 147 32237ft 516kts
24-Apr-20 15:31 36.922611 -116.843211 160 31283ft 455kts
24-Apr-20 15:32 36.816821 -116.761038 147 29374ft 443kts
24-Apr-20 15:33 36.732907 -116.650974 132 27658ft 423kts
24-Apr-20 15:34 36.654996 -116.544064 126 25798ft 423kts
24-Apr-20 15:35 36.577913 -116.430698 131 22719ft 436kts
24-Apr-20 15:36 36.498872 -116.318852 131 20879ft 407kts
24-Apr-20 15:37 36.428946 -116.220258 131 20877ft 375kts
24-Apr-20 15:38 36.358985 -116.121909 132 20871ft 378kts
24-Apr-20 15:39 36.289180 -116.024071 131 20039ft 374kts
24-Apr-20 15:40 36.221248 -115.929132 131 18529ft 363kts
24-Apr-20 15:41 36.175400 -115.821282 110 17048ft 352kts
24-Apr-20 15:42 36.139981 -115.711597 109 15691ft 335kts
24-Apr-20 15:43 36.105932 -115.606069 109 14254ft 325kts
24-Apr-20 15:44 36.072904 -115.504060 109 12860ft 315kts
24-Apr-20 15:45 36.040560 -115.404520 109 11480ft 307kts
24-Apr-20 15:46 36.025870 -115.303235 92 10108ft 295kts
24-Apr-20 15:47 36.018656 -115.203829 92 8788ft 287kts
24-Apr-20 15:48 36.012123 -115.108108 92 8027ft 259kts
24-Apr-20 15:49 36.006895 -115.023745 91 7498ft 243kts
24-Apr-20 15:50 36.001974 -114.941411 91 6990ft 230kts
24-Apr-20 15:51 35.997647 -114.866798 83 7008ft 217kts
24-Apr-20 15:52 36.042236 -114.837284 1 7018ft 194kts
24-Apr-20 15:53 36.081813 -114.866222 273 6544ft 203kts
24-Apr-20 15:54 36.072368 -114.933227 269 5021ft 190kts
24-Apr-20 15:55 36.072833 -114.995227 272 3390ft 171kts
24-Apr-20 15:56 36.073607 -115.057611 270 3132ft 187kts
24-Apr-20 15:57 36.073618 -115.117329 268 2191ft 151kts
24-Apr-20 15:58 36.074275 -115.144965 296 2101ft 5kts
24-Apr-20 15:59 36.074863 -115.146125 313 2104ft 11kts
24-Apr-20 16:01 36.077241 -115.146556 0 2103ft 0kts
24-Apr-20 16:02 36.077702 -115.146113 84 2101ft 15kts

Navigation Log

Ident Type
Flight plan parsing failed, navigation log unavailable